sensor_id;sensor_type;location;lat;lon;timestamp;P1;durP1;ratioP1;P2;durP2;ratioP2
7359;SDS011;3720;48.274;7.796;2023-07-20T00:01:21;4.68;;;3.20;;
7359;SDS011;3720;48.274;7.796;2023-07-20T00:03:54;5.70;;;3.13;;
7359;SDS011;3720;48.274;7.796;2023-07-20T00:06:26;4.20;;;3.38;;
7359;SDS011;3720;48.274;7.796;2023-07-20T00:08:59;4.55;;;3.20;;
7359;SDS011;3720;48.274;7.796;2023-07-20T00:11:30;6.07;;;3.28;;
7359;SDS011;3720;48.274;7.796;2023-07-20T00:14:02;7.32;;;3.35;;
7359;SDS011;3720;48.274;7.796;2023-07-20T00:16:35;6.75;;;3.13;;
7359;SDS011;3720;48.274;7.796;2023-07-20T00:19:08;6.07;;;3.30;;
7359;SDS011;3720;48.274;7.796;2023-07-20T00:21:40;6.47;;;3.40;;
7359;SDS011;3720;48.274;7.796;2023-07-20T00:24:12;4.78;;;3.00;;
7359;SDS011;3720;48.274;7.796;2023-07-20T00:26:44;4.80;;;3.20;;
7359;SDS011;3720;48.274;7.796;2023-07-20T00:29:16;4.90;;;3.17;;
7359;SDS011;3720;48.274;7.796;2023-07-20T00:31:48;5.95;;;3.30;;
7359;SDS011;3720;48.274;7.796;2023-07-20T00:34:21;4.63;;;2.80;;
7359;SDS011;3720;48.274;7.796;2023-07-20T00:36:53;3.90;;;3.00;;
7359;SDS011;3720;48.274;7.796;2023-07-20T00:39:25;5.43;;;3.20;;
7359;SDS011;3720;48.274;7.796;2023-07-20T00:41:57;4.43;;;3.00;;
7359;SDS011;3720;48.274;7.796;2023-07-20T00:44:29;6.22;;;2.92;;
7359;SDS011;3720;48.274;7.796;2023-07-20T00:47:00;3.90;;;2.75;;
7359;SDS011;3720;48.274;7.796;2023-07-20T00:49:34;3.85;;;2.80;;
7359;SDS011;3720;48.274;7.796;2023-07-20T00:52:06;5.60;;;3.17;;
7359;SDS011;3720;48.274;7.796;2023-07-20T00:54:39;4.22;;;3.17;;
7359;SDS011;3720;48.274;7.796;2023-07-20T00:57:12;5.00;;;3.20;;
7359;SDS011;3720;48.274;7.796;2023-07-20T00:59:46;4.18;;;3.03;;
7359;SDS011;3720;48.274;7.796;2023-07-20T01:02:18;3.83;;;2.65;;
7359;SDS011;3720;48.274;7.796;2023-07-20T01:04:51;4.78;;;3.20;;
7359;SDS011;3720;48.274;7.796;2023-07-20T01:07:25;5.38;;;3.40;;
7359;SDS011;3720;48.274;7.796;2023-07-20T01:10:03;7.00;;;3.53;;
7359;SDS011;3720;48.274;7.796;2023-07-20T01:12:42;5.55;;;3.10;;
7359;SDS011;3720;48.274;7.796;2023-07-20T01:15:16;4.68;;;3.15;;
7359;SDS011;3720;48.274;7.796;2023-07-20T01:17:47;5.00;;;3.38;;
7359;SDS011;3720;48.274;7.796;2023-07-20T01:20:21;7.35;;;3.33;;
7359;SDS011;3720;48.274;7.796;2023-07-20T01:23:01;6.47;;;3.10;;
7359;SDS011;3720;48.274;7.796;2023-07-20T01:25:53;6.93;;;3.17;;
7359;SDS011;3720;48.274;7.796;2023-07-20T01:31:42;4.70;;;3.20;;
7359;SDS011;3720;48.274;7.796;2023-07-20T01:34:16;6.57;;;3.17;;
7359;SDS011;3720;48.274;7.796;2023-07-20T01:36:49;6.13;;;3.22;;
7359;SDS011;3720;48.274;7.796;2023-07-20T01:39:23;5.07;;;3.42;;
7359;SDS011;3720;48.274;7.796;2023-07-20T01:41:55;5.47;;;3.08;;
7359;SDS011;3720;48.274;7.796;2023-07-20T01:44:28;6.32;;;3.10;;
7359;SDS011;3720;48.274;7.796;2023-07-20T01:47:02;5.82;;;3.35;;
7359;SDS011;3720;48.274;7.796;2023-07-20T01:49:35;5.40;;;3.22;;
7359;SDS011;3720;48.274;7.796;2023-07-20T01:52:06;5.32;;;3.30;;
7359;SDS011;3720;48.274;7.796;2023-07-20T01:54:38;8.32;;;3.42;;
7359;SDS011;3720;48.274;7.796;2023-07-20T01:57:11;5.65;;;3.50;;
7359;SDS011;3720;48.274;7.796;2023-07-20T01:59:43;4.28;;;3.25;;
7359;SDS011;3720;48.274;7.796;2023-07-20T02:02:16;5.82;;;3.20;;
7359;SDS011;3720;48.274;7.796;2023-07-20T02:04:48;6.05;;;3.38;;
7359;SDS011;3720;48.274;7.796;2023-07-20T02:07:20;6.57;;;3.30;;
7359;SDS011;3720;48.274;7.796;2023-07-20T02:09:52;5.60;;;2.90;;
7359;SDS011;3720;48.274;7.796;2023-07-20T02:12:24;6.03;;;3.30;;
7359;SDS011;3720;48.274;7.796;2023-07-20T02:14:56;7.28;;;3.20;;
7359;SDS011;3720;48.274;7.796;2023-07-20T02:17:29;4.82;;;3.40;;
7359;SDS011;3720;48.274;7.796;2023-07-20T02:20:01;5.07;;;3.40;;
7359;SDS011;3720;48.274;7.796;2023-07-20T02:22:33;5.80;;;3.20;;
7359;SDS011;3720;48.274;7.796;2023-07-20T02:25:05;4.82;;;3.20;;
7359;SDS011;3720;48.274;7.796;2023-07-20T02:27:38;4.68;;;3.70;;
7359;SDS011;3720;48.274;7.796;2023-07-20T02:30:11;6.10;;;3.50;;
7359;SDS011;3720;48.274;7.796;2023-07-20T02:32:45;6.18;;;3.50;;
7359;SDS011;3720;48.274;7.796;2023-07-20T02:35:18;5.63;;;3.58;;
7359;SDS011;3720;48.274;7.796;2023-07-20T02:37:50;5.85;;;3.70;;
7359;SDS011;3720;48.274;7.796;2023-07-20T02:40:22;4.80;;;3.47;;
7359;SDS011;3720;48.274;7.796;2023-07-20T02:42:54;4.95;;;3.20;;
7359;SDS011;3720;48.274;7.796;2023-07-20T02:45:26;5.45;;;3.38;;
7359;SDS011;3720;48.274;7.796;2023-07-20T02:47:59;4.63;;;3.05;;
7359;SDS011;3720;48.274;7.796;2023-07-20T02:50:33;5.32;;;3.70;;
7359;SDS011;3720;48.274;7.796;2023-07-20T02:53:05;6.00;;;3.55;;
7359;SDS011;3720;48.274;7.796;2023-07-20T02:55:37;4.05;;;3.20;;
7359;SDS011;3720;48.274;7.796;2023-07-20T02:58:09;5.35;;;3.30;;
7359;SDS011;3720;48.274;7.796;2023-07-20T03:00:42;8.30;;;3.75;;
7359;SDS011;3720;48.274;7.796;2023-07-20T03:03:15;5.35;;;3.60;;
7359;SDS011;3720;48.274;7.796;2023-07-20T03:05:47;3.72;;;3.15;;
7359;SDS011;3720;48.274;7.796;2023-07-20T03:08:24;5.40;;;3.33;;
7359;SDS011;3720;48.274;7.796;2023-07-20T03:10:56;4.30;;;3.38;;
7359;SDS011;3720;48.274;7.796;2023-07-20T03:13:27;8.18;;;3.55;;
7359;SDS011;3720;48.274;7.796;2023-07-20T03:16:00;5.50;;;3.45;;
7359;SDS011;3720;48.274;7.796;2023-07-20T03:18:33;5.25;;;3.10;;
7359;SDS011;3720;48.274;7.796;2023-07-20T03:21:05;4.30;;;3.33;;
7359;SDS011;3720;48.274;7.796;2023-07-20T03:23:37;6.22;;;3.70;;
7359;SDS011;3720;48.274;7.796;2023-07-20T03:26:09;6.68;;;3.50;;
7359;SDS011;3720;48.274;7.796;2023-07-20T03:28:41;3.90;;;3.50;;
7359;SDS011;3720;48.274;7.796;2023-07-20T03:31:14;4.78;;;3.45;;
7359;SDS011;3720;48.274;7.796;2023-07-20T03:33:47;5.32;;;3.45;;
7359;SDS011;3720;48.274;7.796;2023-07-20T03:36:19;4.78;;;3.60;;
7359;SDS011;3720;48.274;7.796;2023-07-20T03:38:52;4.75;;;3.30;;
7359;SDS011;3720;48.274;7.796;2023-07-20T03:41:24;4.55;;;3.40;;
7359;SDS011;3720;48.274;7.796;2023-07-20T03:43:56;4.13;;;3.30;;
7359;SDS011;3720;48.274;7.796;2023-07-20T03:46:28;6.00;;;3.33;;
7359;SDS011;3720;48.274;7.796;2023-07-20T03:49:01;4.95;;;3.05;;
7359;SDS011;3720;48.274;7.796;2023-07-20T03:51:33;5.30;;;3.17;;
7359;SDS011;3720;48.274;7.796;2023-07-20T03:54:05;5.20;;;3.30;;
7359;SDS011;3720;48.274;7.796;2023-07-20T03:56:38;5.18;;;3.03;;
7359;SDS011;3720;48.274;7.796;2023-07-20T03:59:09;7.05;;;3.60;;
7359;SDS011;3720;48.274;7.796;2023-07-20T04:01:41;5.50;;;3.55;;
7359;SDS011;3720;48.274;7.796;2023-07-20T04:04:15;6.93;;;3.60;;
7359;SDS011;3720;48.274;7.796;2023-07-20T04:06:48;4.10;;;3.30;;
7359;SDS011;3720;48.274;7.796;2023-07-20T04:09:19;6.05;;;3.30;;
7359;SDS011;3720;48.274;7.796;2023-07-20T04:11:51;7.18;;;3.28;;
7359;SDS011;3720;48.274;7.796;2023-07-20T04:14:23;5.20;;;3.25;;
7359;SDS011;3720;48.274;7.796;2023-07-20T04:16:55;6.13;;;3.08;;
7359;SDS011;3720;48.274;7.796;2023-07-20T04:19:28;5.85;;;3.08;;
7359;SDS011;3720;48.274;7.796;2023-07-20T04:22:00;6.85;;;3.20;;
7359;SDS011;3720;48.274;7.796;2023-07-20T04:24:33;4.75;;;3.00;;
7359;SDS011;3720;48.274;7.796;2023-07-20T04:27:05;6.20;;;3.05;;
7359;SDS011;3720;48.274;7.796;2023-07-20T04:29:37;5.47;;;3.70;;
7359;SDS011;3720;48.274;7.796;2023-07-20T04:32:09;5.80;;;3.33;;
7359;SDS011;3720;48.274;7.796;2023-07-20T04:34:42;5.07;;;3.53;;
7359;SDS011;3720;48.274;7.796;2023-07-20T04:37:14;3.80;;;3.10;;
7359;SDS011;3720;48.274;7.796;2023-07-20T04:39:46;4.40;;;3.28;;
7359;SDS011;3720;48.274;7.796;2023-07-20T04:42:18;5.78;;;3.40;;
7359;SDS011;3720;48.274;7.796;2023-07-20T04:44:50;3.80;;;3.20;;
7359;SDS011;3720;48.274;7.796;2023-07-20T04:47:22;4.55;;;3.30;;
7359;SDS011;3720;48.274;7.796;2023-07-20T04:49:55;4.13;;;3.28;;
7359;SDS011;3720;48.274;7.796;2023-07-20T04:52:27;6.07;;;3.25;;
7359;SDS011;3720;48.274;7.796;2023-07-20T04:54:59;5.90;;;3.53;;
7359;SDS011;3720;48.274;7.796;2023-07-20T04:57:31;4.53;;;3.08;;
7359;SDS011;3720;48.274;7.796;2023-07-20T05:00:03;5.45;;;3.40;;
7359;SDS011;3720;48.274;7.796;2023-07-20T05:02:36;3.75;;;3.05;;
7359;SDS011;3720;48.274;7.796;2023-07-20T05:05:09;7.95;;;3.50;;
7359;SDS011;3720;48.274;7.796;2023-07-20T05:07:42;4.38;;;3.40;;
7359;SDS011;3720;48.274;7.796;2023-07-20T05:10:13;11.45;;;3.47;;
7359;SDS011;3720;48.274;7.796;2023-07-20T05:12:45;5.95;;;3.40;;
7359;SDS011;3720;48.274;7.796;2023-07-20T05:15:17;3.85;;;2.97;;
7359;SDS011;3720;48.274;7.796;2023-07-20T05:17:49;4.57;;;3.00;;
7359;SDS011;3720;48.274;7.796;2023-07-20T05:20:23;4.18;;;2.75;;
7359;SDS011;3720;48.274;7.796;2023-07-20T05:22:54;4.60;;;3.10;;
7359;SDS011;3720;48.274;7.796;2023-07-20T05:25:26;4.53;;;2.90;;
7359;SDS011;3720;48.274;7.796;2023-07-20T05:27:58;4.93;;;3.08;;
7359;SDS011;3720;48.274;7.796;2023-07-20T05:30:30;4.68;;;3.20;;
7359;SDS011;3720;48.274;7.796;2023-07-20T05:33:02;5.68;;;3.15;;
7359;SDS011;3720;48.274;7.796;2023-07-20T05:35:37;5.65;;;3.05;;
7359;SDS011;3720;48.274;7.796;2023-07-20T05:38:09;5.63;;;3.28;;
7359;SDS011;3720;48.274;7.796;2023-07-20T05:40:41;6.78;;;3.15;;
7359;SDS011;3720;48.274;7.796;2023-07-20T05:43:13;5.00;;;3.30;;
7359;SDS011;3720;48.274;7.796;2023-07-20T05:45:45;5.18;;;2.83;;
7359;SDS011;3720;48.274;7.796;2023-07-20T05:48:17;4.15;;;2.95;;
7359;SDS011;3720;48.274;7.796;2023-07-20T05:50:51;6.72;;;3.47;;
7359;SDS011;3720;48.274;7.796;2023-07-20T05:53:23;6.80;;;3.17;;
7359;SDS011;3720;48.274;7.796;2023-07-20T05:55:55;6.43;;;3.55;;
7359;SDS011;3720;48.274;7.796;2023-07-20T05:58:27;5.63;;;3.40;;
7359;SDS011;3720;48.274;7.796;2023-07-20T06:00:59;4.55;;;3.40;;
7359;SDS011;3720;48.274;7.796;2023-07-20T06:03:32;7.15;;;3.58;;
7359;SDS011;3720;48.274;7.796;2023-07-20T06:06:06;6.97;;;3.22;;
7359;SDS011;3720;48.274;7.796;2023-07-20T06:08:39;4.50;;;2.97;;
7359;SDS011;3720;48.274;7.796;2023-07-20T06:11:11;6.82;;;3.17;;
7359;SDS011;3720;48.274;7.796;2023-07-20T06:13:43;8.25;;;3.70;;
7359;SDS011;3720;48.274;7.796;2023-07-20T06:16:15;4.45;;;3.03;;
7359;SDS011;3720;48.274;7.796;2023-07-20T06:18:47;5.03;;;3.45;;
7359;SDS011;3720;48.274;7.796;2023-07-20T06:21:20;6.18;;;3.17;;
7359;SDS011;3720;48.274;7.796;2023-07-20T06:23:52;7.07;;;3.72;;
7359;SDS011;3720;48.274;7.796;2023-07-20T06:26:24;4.68;;;3.40;;
7359;SDS011;3720;48.274;7.796;2023-07-20T06:28:56;5.15;;;3.17;;
7359;SDS011;3720;48.274;7.796;2023-07-20T06:31:28;6.43;;;3.38;;
7359;SDS011;3720;48.274;7.796;2023-07-20T06:34:00;6.00;;;3.28;;
7359;SDS011;3720;48.274;7.796;2023-07-20T06:36:33;5.30;;;3.58;;
7359;SDS011;3720;48.274;7.796;2023-07-20T06:39:05;8.30;;;3.60;;
7359;SDS011;3720;48.274;7.796;2023-07-20T06:41:37;7.00;;;3.45;;
7359;SDS011;3720;48.274;7.796;2023-07-20T06:44:09;9.63;;;3.90;;
7359;SDS011;3720;48.274;7.796;2023-07-20T06:46:41;11.15;;;3.90;;
7359;SDS011;3720;48.274;7.796;2023-07-20T06:49:23;9.70;;;3.60;;
7359;SDS011;3720;48.274;7.796;2023-07-20T06:51:57;9.65;;;4.15;;
7359;SDS011;3720;48.274;7.796;2023-07-20T06:54:29;10.30;;;3.70;;
7359;SDS011;3720;48.274;7.796;2023-07-20T06:57:01;5.72;;;3.10;;
7359;SDS011;3720;48.274;7.796;2023-07-20T06:59:33;7.22;;;3.45;;
7359;SDS011;3720;48.274;7.796;2023-07-20T07:02:05;9.65;;;3.45;;
7359;SDS011;3720;48.274;7.796;2023-07-20T07:04:37;6.88;;;3.22;;
7359;SDS011;3720;48.274;7.796;2023-07-20T07:07:10;6.32;;;3.47;;
7359;SDS011;3720;48.274;7.796;2023-07-20T07:09:42;7.53;;;3.47;;
7359;SDS011;3720;48.274;7.796;2023-07-20T07:12:14;5.75;;;3.40;;
7359;SDS011;3720;48.274;7.796;2023-07-20T07:14:46;4.97;;;3.05;;
7359;SDS011;3720;48.274;7.796;2023-07-20T07:17:18;7.80;;;3.03;;
7359;SDS011;3720;48.274;7.796;2023-07-20T07:19:50;6.05;;;3.30;;
7359;SDS011;3720;48.274;7.796;2023-07-20T07:22:25;7.00;;;3.30;;
7359;SDS011;3720;48.274;7.796;2023-07-20T07:24:57;5.75;;;3.30;;
7359;SDS011;3720;48.274;7.796;2023-07-20T07:27:28;5.65;;;3.20;;
7359;SDS011;3720;48.274;7.796;2023-07-20T07:30:00;4.30;;;3.00;;
7359;SDS011;3720;48.274;7.796;2023-07-20T07:32:32;4.75;;;3.17;;
7359;SDS011;3720;48.274;7.796;2023-07-20T07:35:05;4.82;;;3.28;;
7359;SDS011;3720;48.274;7.796;2023-07-20T07:37:38;6.65;;;3.53;;
7359;SDS011;3720;48.274;7.796;2023-07-20T07:40:10;4.50;;;3.03;;
7359;SDS011;3720;48.274;7.796;2023-07-20T07:42:43;5.22;;;3.20;;
7359;SDS011;3720;48.274;7.796;2023-07-20T07:45:15;4.88;;;3.10;;
7359;SDS011;3720;48.274;7.796;2023-07-20T07:47:47;7.70;;;3.40;;
7359;SDS011;3720;48.274;7.796;2023-07-20T07:50:19;4.90;;;2.95;;
7359;SDS011;3720;48.274;7.796;2023-07-20T07:52:53;5.05;;;3.00;;
7359;SDS011;3720;48.274;7.796;2023-07-20T07:55:25;7.28;;;3.63;;
7359;SDS011;3720;48.274;7.796;2023-07-20T07:57:58;7.10;;;3.03;;
7359;SDS011;3720;48.274;7.796;2023-07-20T08:00:30;6.15;;;3.30;;
7359;SDS011;3720;48.274;7.796;2023-07-20T08:03:02;6.45;;;3.00;;
7359;SDS011;3720;48.274;7.796;2023-07-20T08:05:34;5.55;;;2.95;;
7359;SDS011;3720;48.274;7.796;2023-07-20T08:08:07;4.97;;;3.10;;
7359;SDS011;3720;48.274;7.796;2023-07-20T08:10:39;8.88;;;3.47;;
7359;SDS011;3720;48.274;7.796;2023-07-20T08:13:11;5.97;;;3.00;;
7359;SDS011;3720;48.274;7.796;2023-07-20T08:15:45;7.63;;;3.17;;
7359;SDS011;3720;48.274;7.796;2023-07-20T08:20:52;5.22;;;3.05;;
7359;SDS011;3720;48.274;7.796;2023-07-20T08:23:25;5.22;;;3.20;;
7359;SDS011;3720;48.274;7.796;2023-07-20T08:25:58;7.63;;;3.22;;
7359;SDS011;3720;48.274;7.796;2023-07-20T08:28:31;5.45;;;3.30;;
7359;SDS011;3720;48.274;7.796;2023-07-20T08:31:05;4.57;;;3.20;;
7359;SDS011;3720;48.274;7.796;2023-07-20T08:33:37;4.70;;;3.05;;
7359;SDS011;3720;48.274;7.796;2023-07-20T08:36:09;5.65;;;3.30;;
7359;SDS011;3720;48.274;7.796;2023-07-20T08:38:42;4.95;;;3.00;;
7359;SDS011;3720;48.274;7.796;2023-07-20T08:41:14;6.25;;;3.17;;
7359;SDS011;3720;48.274;7.796;2023-07-20T08:43:47;4.60;;;2.90;;
7359;SDS011;3720;48.274;7.796;2023-07-20T08:46:20;4.15;;;2.60;;
7359;SDS011;3720;48.274;7.796;2023-07-20T08:48:54;6.10;;;2.58;;
7359;SDS011;3720;48.274;7.796;2023-07-20T08:51:28;6.10;;;2.42;;
7359;SDS011;3720;48.274;7.796;2023-07-20T08:54:02;4.72;;;2.70;;
7359;SDS011;3720;48.274;7.796;2023-07-20T08:56:34;5.47;;;2.72;;
7359;SDS011;3720;48.274;7.796;2023-07-20T08:59:07;6.10;;;2.92;;
7359;SDS011;3720;48.274;7.796;2023-07-20T09:01:39;3.83;;;2.40;;
7359;SDS011;3720;48.274;7.796;2023-07-20T09:04:12;5.72;;;2.65;;
7359;SDS011;3720;48.274;7.796;2023-07-20T09:06:46;3.47;;;2.60;;
7359;SDS011;3720;48.274;7.796;2023-07-20T09:09:21;4.10;;;2.63;;
7359;SDS011;3720;48.274;7.796;2023-07-20T09:11:53;4.68;;;2.42;;
7359;SDS011;3720;48.274;7.796;2023-07-20T09:14:25;5.68;;;2.45;;
7359;SDS011;3720;48.274;7.796;2023-07-20T09:16:57;4.18;;;2.20;;
7359;SDS011;3720;48.274;7.796;2023-07-20T09:19:29;4.35;;;2.20;;
7359;SDS011;3720;48.274;7.796;2023-07-20T09:22:01;4.97;;;2.20;;
7359;SDS011;3720;48.274;7.796;2023-07-20T09:24:34;3.33;;;2.00;;
7359;SDS011;3720;48.274;7.796;2023-07-20T09:27:06;5.82;;;2.58;;
7359;SDS011;3720;48.274;7.796;2023-07-20T09:29:47;4.45;;;2.13;;
7359;SDS011;3720;48.274;7.796;2023-07-20T09:32:20;7.20;;;2.20;;
7359;SDS011;3720;48.274;7.796;2023-07-20T09:34:52;9.05;;;2.42;;
7359;SDS011;3720;48.274;7.796;2023-07-20T09:37:24;4.05;;;2.10;;
7359;SDS011;3720;48.274;7.796;2023-07-20T09:39:58;4.55;;;2.20;;
7359;SDS011;3720;48.274;7.796;2023-07-20T09:42:30;4.28;;;2.13;;
7359;SDS011;3720;48.274;7.796;2023-07-20T09:45:03;3.80;;;2.30;;
7359;SDS011;3720;48.274;7.796;2023-07-20T09:47:38;3.55;;;1.90;;
7359;SDS011;3720;48.274;7.796;2023-07-20T09:50:11;5.05;;;2.20;;
7359;SDS011;3720;48.274;7.796;2023-07-20T09:52:43;2.72;;;1.83;;
7359;SDS011;3720;48.274;7.796;2023-07-20T09:55:16;3.50;;;2.00;;
7359;SDS011;3720;48.274;7.796;2023-07-20T09:57:49;3.00;;;2.00;;
7359;SDS011;3720;48.274;7.796;2023-07-20T10:00:23;2.00;;;1.60;;
7359;SDS011;3720;48.274;7.796;2023-07-20T10:02:55;4.30;;;2.10;;
7359;SDS011;3720;48.274;7.796;2023-07-20T10:05:29;3.45;;;1.95;;
7359;SDS011;3720;48.274;7.796;2023-07-20T10:08:05;3.00;;;1.73;;
7359;SDS011;3720;48.274;7.796;2023-07-20T10:10:44;3.65;;;2.10;;
7359;SDS011;3720;48.274;7.796;2023-07-20T10:13:17;5.68;;;2.10;;
7359;SDS011;3720;48.274;7.796;2023-07-20T10:15:53;4.47;;;2.38;;
7359;SDS011;3720;48.274;7.796;2023-07-20T10:18:29;3.15;;;2.00;;
7359;SDS011;3720;48.274;7.796;2023-07-20T10:21:06;3.28;;;1.92;;
7359;SDS011;3720;48.274;7.796;2023-07-20T10:23:38;3.17;;;2.10;;
7359;SDS011;3720;48.274;7.796;2023-07-20T10:26:12;4.93;;;2.00;;
7359;SDS011;3720;48.274;7.796;2023-07-20T10:28:44;3.53;;;1.95;;
7359;SDS011;3720;48.274;7.796;2023-07-20T10:31:17;5.95;;;1.92;;
7359;SDS011;3720;48.274;7.796;2023-07-20T10:33:49;5.70;;;1.90;;
7359;SDS011;3720;48.274;7.796;2023-07-20T10:36:24;2.50;;;1.80;;
7359;SDS011;3720;48.274;7.796;2023-07-20T10:38:57;3.17;;;2.10;;
7359;SDS011;3720;48.274;7.796;2023-07-20T10:41:35;4.97;;;1.92;;
7359;SDS011;3720;48.274;7.796;2023-07-20T10:44:10;2.65;;;1.85;;
7359;SDS011;3720;48.274;7.796;2023-07-20T10:46:43;3.35;;;1.60;;
7359;SDS011;3720;48.274;7.796;2023-07-20T10:49:16;3.35;;;2.00;;
7359;SDS011;3720;48.274;7.796;2023-07-20T10:51:55;2.95;;;1.98;;
7359;SDS011;3720;48.274;7.796;2023-07-20T10:54:35;3.42;;;2.10;;
7359;SDS011;3720;48.274;7.796;2023-07-20T10:57:30;4.63;;;1.95;;
7359;SDS011;3720;48.274;7.796;2023-07-20T11:00:07;4.32;;;2.25;;
7359;SDS011;3720;48.274;7.796;2023-07-20T11:02:43;6.95;;;2.22;;
7359;SDS011;3720;48.274;7.796;2023-07-20T11:05:35;3.85;;;2.17;;
7359;SDS011;3720;48.274;7.796;2023-07-20T11:08:11;4.20;;;2.10;;
7359;SDS011;3720;48.274;7.796;2023-07-20T11:10:44;3.45;;;2.08;;
7359;SDS011;3720;48.274;7.796;2023-07-20T11:13:20;3.88;;;2.08;;
7359;SDS011;3720;48.274;7.796;2023-07-20T11:16:03;4.55;;;2.35;;
7359;SDS011;3720;48.274;7.796;2023-07-20T11:18:36;4.75;;;2.28;;
7359;SDS011;3720;48.274;7.796;2023-07-20T11:21:10;4.88;;;2.00;;
7359;SDS011;3720;48.274;7.796;2023-07-20T11:23:43;6.80;;;2.05;;
7359;SDS011;3720;48.274;7.796;2023-07-20T11:26:16;5.32;;;2.00;;
7359;SDS011;3720;48.274;7.796;2023-07-20T11:28:51;2.88;;;1.70;;
7359;SDS011;3720;48.274;7.796;2023-07-20T11:31:23;3.67;;;2.10;;
7359;SDS011;3720;48.274;7.796;2023-07-20T11:33:55;2.88;;;2.00;;
7359;SDS011;3720;48.274;7.796;2023-07-20T11:36:27;5.10;;;2.25;;
7359;SDS011;3720;48.274;7.796;2023-07-20T11:38:59;3.33;;;1.80;;
7359;SDS011;3720;48.274;7.796;2023-07-20T11:41:31;3.42;;;1.70;;
7359;SDS011;3720;48.274;7.796;2023-07-20T11:44:05;2.72;;;1.77;;
7359;SDS011;3720;48.274;7.796;2023-07-20T11:46:37;1.90;;;1.70;;
7359;SDS011;3720;48.274;7.796;2023-07-20T11:49:10;2.35;;;1.48;;
7359;SDS011;3720;48.274;7.796;2023-07-20T11:51:43;2.97;;;1.70;;
7359;SDS011;3720;48.274;7.796;2023-07-20T11:54:15;3.63;;;1.80;;
7359;SDS011;3720;48.274;7.796;2023-07-20T11:56:48;3.08;;;1.90;;
7359;SDS011;3720;48.274;7.796;2023-07-20T11:59:25;2.72;;;1.85;;
7359;SDS011;3720;48.274;7.796;2023-07-20T12:01:58;3.95;;;1.70;;
7359;SDS011;3720;48.274;7.796;2023-07-20T12:04:32;5.25;;;1.80;;
7359;SDS011;3720;48.274;7.796;2023-07-20T12:07:07;2.40;;;1.70;;
7359;SDS011;3720;48.274;7.796;2023-07-20T12:09:38;3.33;;;1.60;;
7359;SDS011;3720;48.274;7.796;2023-07-20T12:12:10;3.08;;;1.60;;
7359;SDS011;3720;48.274;7.796;2023-07-20T12:14:44;2.50;;;1.52;;
7359;SDS011;3720;48.274;7.796;2023-07-20T12:17:16;2.92;;;1.70;;
7359;SDS011;3720;48.274;7.796;2023-07-20T12:19:48;4.03;;;1.83;;
7359;SDS011;3720;48.274;7.796;2023-07-20T12:22:20;2.50;;;1.50;;
7359;SDS011;3720;48.274;7.796;2023-07-20T12:24:52;4.43;;;1.75;;
7359;SDS011;3720;48.274;7.796;2023-07-20T12:27:27;1.83;;;1.50;;
7359;SDS011;3720;48.274;7.796;2023-07-20T12:30:01;2.10;;;1.67;;
7359;SDS011;3720;48.274;7.796;2023-07-20T12:32:34;2.67;;;1.60;;
7359;SDS011;3720;48.274;7.796;2023-07-20T12:35:06;4.32;;;1.65;;
7359;SDS011;3720;48.274;7.796;2023-07-20T12:37:39;3.45;;;1.75;;
7359;SDS011;3720;48.274;7.796;2023-07-20T12:40:11;2.83;;;1.60;;
7359;SDS011;3720;48.274;7.796;2023-07-20T12:42:43;2.40;;;1.70;;
7359;SDS011;3720;48.274;7.796;2023-07-20T12:45:16;5.05;;;1.50;;
7359;SDS011;3720;48.274;7.796;2023-07-20T12:47:49;2.85;;;1.50;;
7359;SDS011;3720;48.274;7.796;2023-07-20T12:50:21;2.38;;;1.60;;
7359;SDS011;3720;48.274;7.796;2023-07-20T12:52:52;2.78;;;1.30;;
7359;SDS011;3720;48.274;7.796;2023-07-20T12:55:24;3.40;;;1.40;;
7359;SDS011;3720;48.274;7.796;2023-07-20T12:57:56;3.10;;;1.40;;
7359;SDS011;3720;48.274;7.796;2023-07-20T13:00:30;2.80;;;1.50;;
7359;SDS011;3720;48.274;7.796;2023-07-20T13:03:02;3.65;;;1.60;;
7359;SDS011;3720;48.274;7.796;2023-07-20T13:05:36;5.30;;;1.70;;
7359;SDS011;3720;48.274;7.796;2023-07-20T13:08:09;2.00;;;1.42;;
7359;SDS011;3720;48.274;7.796;2023-07-20T13:10:41;1.88;;;1.38;;
7359;SDS011;3720;48.274;7.796;2023-07-20T13:13:14;3.08;;;1.90;;
7359;SDS011;3720;48.274;7.796;2023-07-20T13:15:47;3.88;;;2.72;;
7359;SDS011;3720;48.274;7.796;2023-07-20T13:18:20;3.17;;;2.05;;
7359;SDS011;3720;48.274;7.796;2023-07-20T13:20:52;4.70;;;2.50;;
7359;SDS011;3720;48.274;7.796;2023-07-20T13:23:23;3.08;;;1.73;;
7359;SDS011;3720;48.274;7.796;2023-07-20T13:25:56;1.65;;;1.35;;
7359;SDS011;3720;48.274;7.796;2023-07-20T13:28:27;1.83;;;1.50;;
7359;SDS011;3720;48.274;7.796;2023-07-20T13:31:01;4.53;;;1.60;;
7359;SDS011;3720;48.274;7.796;2023-07-20T13:33:33;2.70;;;1.80;;
7359;SDS011;3720;48.274;7.796;2023-07-20T13:36:05;3.78;;;1.65;;
7359;SDS011;3720;48.274;7.796;2023-07-20T13:38:37;2.22;;;1.35;;
7359;SDS011;3720;48.274;7.796;2023-07-20T13:41:09;2.53;;;1.60;;
7359;SDS011;3720;48.274;7.796;2023-07-20T13:43:41;3.28;;;1.60;;
7359;SDS011;3720;48.274;7.796;2023-07-20T13:46:14;2.40;;;1.50;;
7359;SDS011;3720;48.274;7.796;2023-07-20T13:48:46;2.15;;;1.50;;
7359;SDS011;3720;48.274;7.796;2023-07-20T13:51:18;3.10;;;1.67;;
7359;SDS011;3720;48.274;7.796;2023-07-20T13:53:50;3.63;;;2.90;;
7359;SDS011;3720;48.274;7.796;2023-07-20T13:56:22;2.65;;;1.58;;
7359;SDS011;3720;48.274;7.796;2023-07-20T17:11:43;8.82;;;4.00;;
7359;SDS011;3720;48.274;7.796;2023-07-20T17:14:15;12.68;;;5.90;;
7359;SDS011;3720;48.274;7.796;2023-07-20T17:16:47;6.00;;;3.38;;
7359;SDS011;3720;48.274;7.796;2023-07-20T17:19:19;3.08;;;2.08;;
7359;SDS011;3720;48.274;7.796;2023-07-20T17:21:51;3.60;;;2.40;;
7359;SDS011;3720;48.274;7.796;2023-07-20T17:24:23;3.20;;;1.50;;
7359;SDS011;3720;48.274;7.796;2023-07-20T17:26:56;2.20;;;1.50;;
7359;SDS011;3720;48.274;7.796;2023-07-20T17:29:28;7.28;;;2.03;;
7359;SDS011;3720;48.274;7.796;2023-07-20T17:32:01;4.45;;;2.22;;
7359;SDS011;3720;48.274;7.796;2023-07-20T17:34:32;8.25;;;2.55;;
7359;SDS011;3720;48.274;7.796;2023-07-20T17:37:05;4.85;;;2.15;;
7359;SDS011;3720;48.274;7.796;2023-07-20T17:39:38;3.13;;;1.88;;
7359;SDS011;3720;48.274;7.796;2023-07-20T17:42:11;5.03;;;2.60;;
7359;SDS011;3720;48.274;7.796;2023-07-20T17:44:43;3.50;;;2.10;;
7359;SDS011;3720;48.274;7.796;2023-07-20T17:47:16;11.80;;;9.00;;
7359;SDS011;3720;48.274;7.796;2023-07-20T17:49:48;152.35;;;109.03;;
7359;SDS011;3720;48.274;7.796;2023-07-20T17:52:20;17.05;;;14.15;;
7359;SDS011;3720;48.274;7.796;2023-07-20T17:54:52;253.70;;;184.63;;
7359;SDS011;3720;48.274;7.796;2023-07-20T17:57:26;489.83;;;348.30;;
7359;SDS011;3720;48.274;7.796;2023-07-20T17:59:58;406.38;;;311.90;;
7359;SDS011;3720;48.274;7.796;2023-07-20T18:02:30;184.13;;;143.23;;
7359;SDS011;3720;48.274;7.796;2023-07-20T18:05:04;272.77;;;213.38;;
7359;SDS011;3720;48.274;7.796;2023-07-20T18:07:36;249.02;;;203.82;;
7359;SDS011;3720;48.274;7.796;2023-07-20T18:10:10;495.42;;;426.30;;
7359;SDS011;3720;48.274;7.796;2023-07-20T18:12:43;94.88;;;69.22;;
7359;SDS011;3720;48.274;7.796;2023-07-20T18:15:16;211.82;;;156.43;;
7359;SDS011;3720;48.274;7.796;2023-07-20T18:17:49;41.03;;;29.13;;
7359;SDS011;3720;48.274;7.796;2023-07-20T18:20:20;12.63;;;9.20;;
7359;SDS011;3720;48.274;7.796;2023-07-20T18:22:52;8.43;;;6.53;;
7359;SDS011;3720;48.274;7.796;2023-07-20T18:25:24;11.88;;;8.45;;
7359;SDS011;3720;48.274;7.796;2023-07-20T18:27:58;27.15;;;19.70;;
7359;SDS011;3720;48.274;7.796;2023-07-20T18:30:30;53.05;;;37.97;;
7359;SDS011;3720;48.274;7.796;2023-07-20T18:33:04;8.52;;;7.18;;
7359;SDS011;3720;48.274;7.796;2023-07-20T18:35:36;4.50;;;3.63;;
7359;SDS011;3720;48.274;7.796;2023-07-20T18:38:09;3.97;;;3.58;;
7359;SDS011;3720;48.274;7.796;2023-07-20T18:40:43;6.72;;;3.88;;
7359;SDS011;3720;48.274;7.796;2023-07-20T18:43:16;4.00;;;2.58;;
7359;SDS011;3720;48.274;7.796;2023-07-20T18:45:48;3.40;;;2.08;;
7359;SDS011;3720;48.274;7.796;2023-07-20T18:48:24;3.60;;;2.78;;
7359;SDS011;3720;48.274;7.796;2023-07-20T18:50:55;2.97;;;2.00;;
7359;SDS011;3720;48.274;7.796;2023-07-20T18:53:28;3.45;;;2.20;;
7359;SDS011;3720;48.274;7.796;2023-07-20T18:56:00;3.58;;;1.90;;
7359;SDS011;3720;48.274;7.796;2023-07-20T18:58:34;4.90;;;2.33;;
7359;SDS011;3720;48.274;7.796;2023-07-20T19:01:06;3.78;;;2.10;;
7359;SDS011;3720;48.274;7.796;2023-07-20T19:03:38;3.40;;;2.00;;
7359;SDS011;3720;48.274;7.796;2023-07-20T19:06:09;3.53;;;2.35;;